Time;durP1;ratioP1;P1;durP2;ratioP2;P2;SDS_P1;SDS_P2;PMS_P1;PMS_P2;Temp;Humidity;BMP_temperature;BMP_pressure;BME280_temperature;BME280_humidity;BME280_pressure;Samples;Min_cycle;Max_cycle;Signal;HPM_P1;HPM_P2
2024/01/24 00:00:08;;;;;;;1.20;0.13;;;;;;;12.21;100.00;101355.50;5056545;27;97761;-29
2024/01/24 00:02:33;;;;;;;0.60;0.20;;;;;;;12.20;100.00;101373.59;5055330;27;96768;-27
2024/01/24 00:04:59;;;;;;;1.00;0.22;;;;;;;12.20;100.00;101359.16;5056834;27;96843;-28
2024/01/24 00:07:25;;;;;;;0.20;0.10;;;;;;;12.18;100.00;101344.78;5056409;27;97483;-28
2024/01/24 00:09:50;;;;;;;0.20;0.10;;;;;;;12.16;100.00;101355.75;5056536;27;99094;-27
2024/01/24 00:12:15;;;;;;;1.38;0.10;;;;;;;12.13;100.00;101327.91;5056187;27;96654;-27
2024/01/24 00:14:41;;;;;;;0.00;0.00;;;;;;;12.08;100.00;101368.91;5057002;27;96819;-27
2024/01/24 00:17:06;;;;;;;0.10;0.05;;;;;;;12.08;100.00;101372.53;5055649;27;99282;-28
2024/01/24 00:19:32;;;;;;;0.00;0.00;;;;;;;12.10;100.00;101375.13;5056348;27;97315;-27
2024/01/24 00:21:57;;;;;;;0.63;0.30;;;;;;;12.09;100.00;101371.53;5056484;27;96755;-27
2024/01/24 00:24:22;;;;;;;0.00;0.00;;;;;;;12.10;100.00;101375.13;5056325;27;97103;-28
2024/01/24 00:26:48;;;;;;;0.00;0.00;;;;;;;12.00;100.00;101360.34;5055929;27;97963;-27
2024/01/24 00:29:13;;;;;;;0.00;0.00;;;;;;;12.06;100.00;101377.16;5056213;27;97290;-28
2024/01/24 00:31:38;;;;;;;0.80;0.20;;;;;;;12.06;100.00;101387.13;5056201;27;96602;-28
2024/01/24 00:34:04;;;;;;;0.03;0.00;;;;;;;12.05;100.00;101382.69;5055708;27;96625;-27
2024/01/24 00:36:29;;;;;;;1.63;0.08;;;;;;;12.06;100.00;101377.16;5055982;27;97965;-27
2024/01/24 00:38:55;;;;;;;0.10;0.08;;;;;;;12.12;100.00;101375.91;5055730;27;99372;-28
2024/01/24 00:41:20;;;;;;;1.00;0.20;;;;;;;12.10;100.00;101366.97;5055646;27;96770;-27
2024/01/24 00:43:46;;;;;;;0.20;0.10;;;;;;;12.10;100.00;101361.53;5056005;27;96882;-28
2024/01/24 00:46:11;;;;;;;0.95;0.25;;;;;;;12.04;100.00;101373.66;5055850;27;98006;-27
2024/01/24 00:48:36;;;;;;;0.00;0.00;;;;;;;12.08;100.00;101386.09;5055678;27;98875;-27
2024/01/24 00:51:03;;;;;;;0.17;0.03;;;;;;;12.07;100.00;101378.91;5056107;27;96523;-27
2024/01/24 00:53:29;;;;;;;1.15;0.08;;;;;;;12.10;100.00;101400.44;5054671;27;96949;-27
2024/01/24 00:55:56;;;;;;;1.90;0.30;;;;;;;11.99;100.00;101383.03;5054922;27;96746;-27
2024/01/24 00:58:22;;;;;;;0.20;0.20;;;;;;;12.00;100.00;101377.50;5054237;27;101233;-27
2024/01/24 01:00:47;;;;;;;0.10;0.10;;;;;;;12.12;100.00;101419.38;5056285;27;96489;-27
2024/01/24 01:03:12;;;;;;;0.13;0.13;;;;;;;12.15;100.00;101402.88;5055917;27;96778;-27
2024/01/24 01:05:38;;;;;;;2.95;0.30;;;;;;;12.17;100.00;101397.38;5055055;27;97413;-27
2024/01/24 01:08:05;;;;;;;0.63;0.30;;;;;;;12.14;100.00;101419.28;5055592;27;97316;-27
2024/01/24 01:10:31;;;;;;;0.43;0.30;;;;;;;12.16;100.00;101406.50;5055213;27;96744;-27
2024/01/24 01:12:56;;;;;;;0.30;0.10;;;;;;;12.19;100.00;101388.16;5055812;27;96819;-27
2024/01/24 01:15:24;;;;;;;0.40;0.30;;;;;;;12.21;100.00;101390.78;5055254;27;98909;-27
2024/01/24 01:17:49;;;;;;;0.25;0.25;;;;;;;12.20;100.00;101400.75;5053721;27;101273;-28
2024/01/24 01:20:18;;;;;;;1.42;0.32;;;;;;;12.19;100.00;101393.59;5055533;27;96779;-28
2024/01/24 01:22:44;;;;;;;1.15;0.40;;;;;;;12.20;100.00;101400.75;5055757;27;96890;-27
2024/01/24 01:25:10;;;;;;;4.07;0.60;;;;;;;12.14;100.00;101376.69;5053471;27;100953;-27
2024/01/24 01:27:35;;;;;;;1.33;0.40;;;;;;;12.15;100.00;101372.13;5055149;27;97121;-27
2024/01/24 01:30:00;;;;;;;2.30;0.43;;;;;;;12.21;100.00;101418.81;5054874;27;96696;-27
2024/01/24 01:32:26;;;;;;;0.30;0.30;;;;;;;12.29;100.00;101421.06;5055397;27;96845;-27
2024/01/24 01:34:51;;;;;;;0.20;0.10;;;;;;;12.29;100.00;101378.47;5055008;27;97468;-27
2024/01/24 01:37:16;;;;;;;1.83;0.70;;;;;;;12.26;100.00;101377.81;5054847;27;99081;-27
2024/01/24 01:39:42;;;;;;;0.98;0.40;;;;;;;12.35;100.00;101381.78;5055190;27;96686;-28
2024/01/24 01:42:07;;;;;;;0.68;0.15;;;;;;;12.39;100.00;101372.50;5055672;27;96949;-27
2024/01/24 01:44:43;;;;;;;1.10;0.30;;;;;;;12.37;100.00;101371.72;5055072;27;97588;-27
2024/01/24 01:47:08;;;;;;;1.27;0.32;;;;;;;12.35;100.00;101362.78;5053741;27;100967;-27
2024/01/24 01:49:34;;;;;;;1.25;0.57;;;;;;;12.34;100.00;101359.19;5055155;27;96530;-27
2024/01/24 01:51:59;;;;;;;0.43;0.20;;;;;;;12.37;100.00;101379.88;5055155;27;96840;-27
2024/01/24 01:54:27;;;;;;;0.75;0.20;;;;;;;12.45;100.00;101383.00;5053913;27;99265;-27
2024/01/24 01:56:52;;;;;;;1.25;0.50;;;;;;;12.38;100.00;101340.88;5052652;27;100796;-27
2024/01/24 01:59:17;;;;;;;0.65;0.35;;;;;;;12.42;100.00;101369.59;5055500;27;96613;-27
2024/01/24 02:01:45;;;;;;;0.28;0.20;;;;;;;12.40;100.00;101355.25;5055018;27;96934;-27
2024/01/24 02:04:11;;;;;;;1.55;0.43;;;;;;;12.46;100.00;101411.91;5054572;27;97462;-27
2024/01/24 02:06:37;;;;;;;0.60;0.30;;;;;;;12.50;100.00;101391.75;5054407;27;97467;-27
2024/01/24 02:09:02;;;;;;;0.28;0.13;;;;;;;12.35;100.00;101382.69;5054850;27;96617;-27
2024/01/24 02:11:28;;;;;;;2.13;0.73;;;;;;;12.33;100.00;101396.34;5055170;27;96888;-27
2024/01/24 02:13:59;;;;;;;6.25;0.50;;;;;;;12.30;100.00;101377.53;5054354;27;99458;-27
2024/01/24 02:16:25;;;;;;;0.77;0.30;;;;;;;12.29;100.00;101373.06;5054328;27;99224;-27
2024/01/24 02:18:50;;;;;;;0.80;0.28;;;;;;;12.24;100.00;101385.16;5054319;27;96655;-27
2024/01/24 02:21:15;;;;;;;2.95;0.32;;;;;;;12.20;100.00;101398.03;5054435;27;96908;-27
2024/01/24 02:23:43;;;;;;;2.03;0.38;;;;;;;12.11;100.00;101410.34;5054214;27;99472;-28
2024/01/24 02:26:09;;;;;;;1.40;0.22;;;;;;;12.08;100.00;101396.06;5052855;27;101083;-27
2024/01/24 02:28:34;;;;;;;2.30;0.15;;;;;;;12.05;100.00;101412.53;5054503;27;96581;-28
2024/01/24 02:31:00;;;;;;;0.30;0.20;;;;;;;12.00;100.00;101425.53;5054568;27;96942;-27
2024/01/24 02:33:25;;;;;;;1.35;0.52;;;;;;;11.98;100.00;101403.00;5054497;27;98197;-27
2024/01/24 02:35:50;;;;;;;0.00;0.00;;;;;;;12.01;100.00;101421.81;5054344;27;99102;-27
2024/01/24 02:38:16;;;;;;;3.25;0.75;;;;;;;11.96;100.00;101430.25;5054393;27;96613;-27
2024/01/24 02:40:41;;;;;;;3.50;0.40;;;;;;;11.95;100.00;101405.91;5054663;27;96785;-28
2024/01/24 02:43:07;;;;;;;0.45;0.20;;;;;;;11.93;100.00;101418.69;5053945;27;97346;-27
2024/01/24 02:45:32;;;;;;;2.85;0.50;;;;;;;11.88;100.00;101427.97;5054122;27;97793;-27
2024/01/24 02:47:57;;;;;;;1.75;0.57;;;;;;;11.87;100.00;101426.25;5054243;27;96574;-28
2024/01/24 02:50:23;;;;;;;1.55;0.55;;;;;;;11.82;100.00;101436.47;5054635;27;96846;-27
2024/01/24 02:52:48;;;;;;;0.22;0.20;;;;;;;11.84;100.00;101447.22;5053862;27;99131;-27
2024/01/24 02:55:16;;;;;;;0.75;0.22;;;;;;;11.80;100.00;101432.94;5053460;27;97306;-27
2024/01/24 02:57:45;;;;;;;0.90;0.43;;;;;;;11.79;100.00;101423.03;5053935;27;96834;-27
2024/01/24 03:00:12;;;;;;;2.00;0.50;;;;;;;11.76;100.00;101422.34;5058335;27;96526;-27
2024/01/24 03:02:39;;;;;;;0.60;0.25;;;;;;;11.74;100.00;101430.56;5056031;27;101201;-27
2024/01/24 03:05:06;;;;;;;4.32;0.73;;;;;;;11.69;100.00;101451.69;5055708;27;100909;-27
2024/01/24 03:07:31;;;;;;;3.42;0.85;;;;;;;11.66;100.00;101449.16;5055533;27;96612;-27
2024/01/24 03:09:57;;;;;;;1.23;0.45;;;;;;;11.62;100.00;101410.44;5057712;27;96888;-27
2024/01/24 03:12:22;;;;;;;2.05;0.32;;;;;;;11.60;100.00;101433.19;5057353;27;97245;-27
2024/01/24 03:14:47;;;;;;;3.63;0.77;;;;;;;11.54;100.00;101428.13;5057449;27;97289;-27
2024/01/24 03:17:13;;;;;;;3.08;0.70;;;;;;;11.53;100.00;101424.53;5057740;27;96745;-27
2024/01/24 03:19:38;;;;;;;1.95;0.85;;;;;;;11.51;100.00;101445.44;5057364;27;96924;-29
2024/01/24 03:22:04;;;;;;;11.65;1.35;;;;;;;11.50;100.00;101451.81;5055662;27;100838;-27
2024/01/24 03:24:29;;;;;;;2.47;1.02;;;;;;;11.50;100.00;101434.69;5057534;27;97386;-27
2024/01/24 03:26:55;;;;;;;1.63;0.68;;;;;;;11.45;100.00;101438.53;5057115;27;96533;-27
2024/01/24 03:29:20;;;;;;;5.05;0.93;;;;;;;11.47;100.00;101460.16;5057368;27;96857;-27
2024/01/24 03:31:46;;;;;;;5.35;0.52;;;;;;;11.39;100.00;101474.16;5056596;27;98460;-27
2024/01/24 03:34:12;;;;;;;1.58;0.40;;;;;;;11.44;100.00;101490.13;5056495;27;99576;-27
2024/01/24 03:36:37;;;;;;;3.28;0.85;;;;;;;11.38;100.00;101456.09;5057255;27;96535;-28
2024/01/24 03:39:03;;;;;;;6.03;1.30;;;;;;;11.33;100.00;101450.06;5057064;27;96915;-27
2024/01/24 03:41:29;;;;;;;8.73;1.30;;;;;;;11.30;100.00;101454.75;5055407;27;100883;-27
2024/01/24 03:43:54;;;;;;;2.08;0.55;;;;;;;11.29;100.00;101470.16;5057161;27;97233;-27
2024/01/24 03:46:20;;;;;;;1.38;0.45;;;;;;;11.30;100.00;101479.16;5057263;27;96448;-27
2024/01/24 03:48:45;;;;;;;5.28;1.17;;;;;;;11.27;100.00;101451.28;5057233;27;96966;-27
2024/01/24 03:51:11;;;;;;;7.63;1.20;;;;;;;11.25;100.00;101425.22;5056720;27;97380;-27
2024/01/24 03:53:37;;;;;;;3.85;0.85;;;;;;;11.26;100.00;101467.63;5056467;27;99255;-27
2024/01/24 03:56:03;;;;;;;4.18;0.80;;;;;;;11.25;100.00;101465.88;5056266;27;96566;-27
2024/01/24 03:58:28;;;;;;;6.00;1.27;;;;;;;11.23;100.00;101476.81;5055414;27;96885;-26
2024/01/24 04:00:55;;;;;;;7.57;0.90;;;;;;;11.17;100.00;101476.25;5056492;27;97957;-27
2024/01/24 04:03:21;;;;;;;5.47;0.88;;;;;;;11.19;100.00;101472.50;5055035;27;101015;-27
2024/01/24 04:05:46;;;;;;;8.00;1.15;;;;;;;11.16;100.00;101491.66;5056875;27;96594;-28
2024/01/24 04:08:12;;;;;;;1.20;0.68;;;;;;;11.15;100.00;101502.56;5056315;27;96858;-27
2024/01/24 04:10:37;;;;;;;7.63;1.35;;;;;;;11.14;100.00;101499.00;5056048;27;97428;-27
2024/01/24 04:13:03;;;;;;;2.17;0.32;;;;;;;11.03;100.00;101499.53;5056584;27;99032;-27
2024/01/24 04:15:28;;;;;;;5.53;0.88;;;;;;;10.97;100.00;101480.91;5056903;27;96625;-27
2024/01/24 04:17:53;;;;;;;3.17;0.85;;;;;;;10.96;100.00;101486.41;5056168;27;96871;-27
2024/01/24 04:20:19;;;;;;;11.38;1.92;;;;;;;10.88;100.00;101481.41;5055835;27;98002;-27
2024/01/24 04:22:44;;;;;;;2.38;1.17;;;;;;;10.88;100.00;101478.69;5056265;27;97821;-27
2024/01/24 04:25:10;;;;;;;3.33;0.98;;;;;;;10.86;100.00;101494.16;5056241;27;96539;-27
2024/01/24 04:27:36;;;;;;;8.43;1.42;;;;;;;10.85;100.00;101503.25;5056370;27;96837;-27
2024/01/24 04:30:02;;;;;;;5.20;1.17;;;;;;;10.88;100.00;101515.75;5054508;27;100931;-28
2024/01/24 04:32:27;;;;;;;10.20;1.88;;;;;;;10.92;100.00;101501.09;5054576;27;100794;-27
2024/01/24 04:34:54;;;;;;;3.72;1.52;;;;;;;10.89;100.00;101515.66;5056331;27;96597;-27
2024/01/24 04:37:19;;;;;;;1.80;0.88;;;;;;;10.88;100.00;101513.06;5056801;27;96557;-27
2024/01/24 04:39:45;;;;;;;6.43;1.60;;;;;;;10.83;100.00;101511.44;5056026;27;97460;-27
2024/01/24 04:42:10;;;;;;;5.20;0.98;;;;;;;10.83;100.00;101511.44;5055923;27;97762;-27
2024/01/24 04:44:35;;;;;;;5.18;1.08;;;;;;;10.81;100.00;101509.78;5055600;27;96552;-27
2024/01/24 04:47:01;;;;;;;18.50;1.73;;;;;;;10.83;100.00;101540.38;5056040;27;96821;-27
2024/01/24 04:49:26;;;;;;;3.40;0.73;;;;;;;10.82;100.00;101534.09;5055672;27;99314;-27
2024/01/24 04:51:52;;;;;;;2.47;0.98;;;;;;;10.83;100.00;101535.84;5055826;27;97833;-27
2024/01/24 04:54:17;;;;;;;1.17;0.60;;;;;;;10.85;100.00;101538.47;5056197;27;96682;-27
2024/01/24 04:56:46;;;;;;;5.15;1.58;;;;;;;10.86;100.00;101563.75;5055425;27;96865;-27
2024/01/24 04:59:18;;;;;;;7.38;1.02;;;;;;;10.79;100.00;101544.19;5054168;27;100187;-27
2024/01/24 05:01:43;;;;;;;4.32;0.98;;;;;;;10.86;100.00;101563.75;5054452;27;100786;-29
2024/01/24 05:04:09;;;;;;;4.85;1.15;;;;;;;10.81;100.00;101564.84;5055703;27;96491;-27
2024/01/24 05:06:35;;;;;;;8.02;1.60;;;;;;;10.82;100.00;101593.72;5056001;27;96443;-27
2024/01/24 05:09:01;;;;;;;5.90;1.40;;;;;;;10.82;100.00;101587.41;5054754;27;99394;-29
2024/01/24 05:11:27;;;;;;;6.70;1.50;;;;;;;10.82;100.00;101580.16;5053907;27;100762;-27
2024/01/24 05:13:54;;;;;;;7.03;1.60;;;;;;;10.78;100.00;101585.81;5054142;27;97384;-27
2024/01/24 05:16:20;;;;;;;2.78;0.77;;;;;;;10.81;100.00;101585.66;5055369;27;96885;-27
2024/01/24 05:18:45;;;;;;;4.80;0.73;;;;;;;10.79;100.00;101596.56;5055664;27;97397;-27
2024/01/24 05:21:11;;;;;;;9.15;1.70;;;;;;;10.77;100.00;101562.38;5054868;27;97335;-28
2024/01/24 05:23:36;;;;;;;3.30;0.95;;;;;;;10.74;100.00;101566.13;5055406;27;96634;-28
2024/01/24 05:26:01;;;;;;;5.03;1.75;;;;;;;10.64;100.00;101575.66;5055672;27;96973;-27
2024/01/24 05:28:27;;;;;;;8.73;1.50;;;;;;;10.69;100.00;101570.03;5055013;27;97940;-28
2024/01/24 05:30:52;;;;;;;9.27;1.83;;;;;;;10.62;100.00;101569.44;5054797;27;99297;-27
2024/01/24 05:33:17;;;;;;;7.65;1.50;;;;;;;10.65;100.00;101588.25;5054918;27;96560;-27
2024/01/24 05:35:43;;;;;;;14.57;2.22;;;;;;;10.55;100.00;101557.16;5055459;27;96808;-27
2024/01/24 05:38:08;;;;;;;5.38;1.73;;;;;;;10.56;100.00;101578.78;5054876;27;99163;-27
2024/01/24 05:40:34;;;;;;;7.25;1.63;;;;;;;10.51;100.00;101577.22;5055242;27;97337;-27
2024/01/24 05:43:01;;;;;;;7.95;1.67;;;;;;;10.53;100.00;101591.56;5055504;27;96566;-27
2024/01/24 05:45:26;;;;;;;3.50;1.30;;;;;;;10.48;100.00;101618.00;5054941;27;96864;-27
2024/01/24 05:47:52;;;;;;;13.13;1.98;;;;;;;10.43;100.00;101633.63;5054927;27;97962;-27
2024/01/24 05:50:17;;;;;;;7.78;1.00;;;;;;;10.33;100.00;101644.88;5055197;27;99154;-27
2024/01/24 05:52:44;;;;;;;15.13;2.20;;;;;;;10.33;100.00;101627.78;5055491;27;96546;-27
2024/01/24 05:55:10;;;;;;;10.32;0.95;;;;;;;10.35;100.00;101642.13;5053176;27;96877;-28
2024/01/24 05:57:39;;;;;;;6.70;1.80;;;;;;;10.33;100.00;101662.97;5052377;27;100880;-27
2024/01/24 06:00:08;;;;;;;2.90;1.08;;;;;;;10.21;100.00;101642.75;5053099;27;101087;-27
2024/01/24 06:02:35;;;;;;;8.70;2.03;;;;;;;10.27;100.00;101657.81;5055035;27;96812;-27
2024/01/24 06:05:01;;;;;;;8.48;1.80;;;;;;;10.15;100.00;101634.88;5053623;27;96665;-28
2024/01/24 06:07:26;;;;;;;8.55;1.67;;;;;;;10.19;100.00;101669.00;5054778;27;97953;-28
2024/01/24 06:09:51;;;;;;;3.42;1.45;;;;;;;10.16;100.00;101671.88;5054651;27;97961;-27
2024/01/24 06:12:16;;;;;;;5.85;1.60;;;;;;;10.10;99.10;101674.84;5055163;27;96728;-27
2024/01/24 06:14:42;;;;;;;9.90;1.67;;;;;;;10.18;99.67;101695.19;5054962;27;96790;-27
2024/01/24 06:17:07;;;;;;;9.73;1.52;;;;;;;10.13;100.00;101683.72;5053208;27;98468;-27
2024/01/24 06:19:32;;;;;;;12.15;1.98;;;;;;;10.18;99.25;101716.00;5054533;27;97265;-27
2024/01/24 06:21:58;;;;;;;11.35;1.38;;;;;;;10.12;98.61;101710.84;5054107;27;96602;-27
2024/01/24 06:24:23;;;;;;;3.03;1.00;;;;;;;10.10;98.66;101699.19;5054586;27;96892;-27
2024/01/24 06:26:48;;;;;;;14.13;1.50;;;;;;;10.11;97.57;101726.22;5054160;27;99237;-27
2024/01/24 06:29:14;;;;;;;7.78;1.67;;;;;;;10.06;97.48;101717.44;5054255;27;97829;-27
2024/01/24 06:31:39;;;;;;;4.82;0.85;;;;;;;10.09;98.03;101724.53;5054899;27;96534;-28
2024/01/24 06:34:04;;;;;;;7.15;1.83;;;;;;;10.01;97.04;101730.28;5058406;27;96802;-28
2024/01/24 06:36:30;;;;;;;11.25;2.10;;;;;;;9.99;97.31;101727.66;5057674;27;99273;-27
2024/01/24 06:38:55;;;;;;;7.65;1.80;;;;;;;9.97;97.34;101737.66;5058018;27;99146;-27
2024/01/24 06:41:20;;;;;;;7.75;1.05;;;;;;;9.99;96.96;101754.72;5057966;27;96870;-27
2024/01/24 06:43:46;;;;;;;8.20;1.48;;;;;;;9.92;96.46;101753.22;5058167;27;96738;-27
2024/01/24 06:46:11;;;;;;;3.30;1.23;;;;;;;9.91;95.72;101764.09;5057169;27;98003;-27
2024/01/24 06:48:37;;;;;;;5.32;1.30;;;;;;;9.91;94.95;101753.28;5058165;27;97227;-27
2024/01/24 06:51:02;;;;;;;3.80;1.42;;;;;;;9.87;95.03;101766.09;5057951;27;96450;-28
2024/01/24 06:53:27;;;;;;;4.07;1.48;;;;;;;9.91;95.01;101746.03;5057751;27;96841;-27
2024/01/24 06:55:53;;;;;;;4.25;1.30;;;;;;;9.89;95.09;101749.75;5057249;27;97935;-27
2024/01/24 06:58:18;;;;;;;6.32;1.58;;;;;;;9.86;95.41;101777.84;5056949;27;98610;-27
2024/01/24 07:00:44;;;;;;;9.23;2.13;;;;;;;9.82;94.82;101748.28;5057692;27;96507;-28
2024/01/24 07:03:09;;;;;;;7.72;1.23;;;;;;;9.83;93.97;101756.34;5058100;27;96788;-26
2024/01/24 07:05:35;;;;;;;2.40;1.25;;;;;;;9.83;93.83;101774.41;5057528;27;98034;-28
2024/01/24 07:08:00;;;;;;;5.35;2.05;;;;;;;9.76;93.62;101790.00;5057289;27;97245;-27
2024/01/24 07:10:25;;;;;;;7.03;1.65;;;;;;;9.78;94.33;101799.81;5057299;27;96468;-27
2024/01/24 07:12:51;;;;;;;11.02;2.15;;;;;;;9.73;93.14;101785.63;5057626;27;96741;-27
2024/01/24 07:15:17;;;;;;;10.52;1.70;;;;;;;9.73;91.93;101780.22;5057022;27;99097;-27
2024/01/24 07:17:43;;;;;;;6.95;1.50;;;;;;;9.75;92.60;101790.97;5055873;27;101195;-27
2024/01/24 07:20:08;;;;;;;7.50;1.38;;;;;;;9.77;90.66;101799.88;5056021;27;96609;-27
2024/01/24 07:22:34;;;;;;;6.05;1.08;;;;;;;9.75;89.94;101799.97;5057850;27;96694;-27
2024/01/24 07:24:59;;;;;;;13.95;1.83;;;;;;;9.72;89.61;101805.47;5056081;27;97331;-27
2024/01/24 07:27:24;;;;;;;6.45;0.98;;;;;;;9.75;89.88;101816.19;5057684;27;96608;-27
2024/01/24 07:29:50;;;;;;;1.73;0.77;;;;;;;9.78;89.49;101807.06;5057245;27;96605;-28
2024/01/24 07:32:15;;;;;;;11.02;2.22;;;;;;;9.80;88.93;101813.28;5057445;27;96765;-27
2024/01/24 07:34:41;;;;;;;7.32;2.72;;;;;;;9.71;87.32;101795.63;5056556;27;97948;-28
2024/01/24 07:37:07;;;;;;;25.95;2.90;;;;;;;9.80;88.48;101824.13;5057053;27;97841;-26
2024/01/24 07:39:33;;;;;;;3.08;0.90;;;;;;;9.78;89.06;101848.53;5038907;27;96662;-26
2024/01/24 07:41:59;;;;;;;8.13;1.50;;;;;;;9.71;87.01;101863.25;5056894;27;96707;-27
2024/01/24 07:44:24;;;;;;;7.65;1.67;;;;;;;9.76;87.36;101863.94;5056120;27;99188;-27
2024/01/24 07:46:49;;;;;;;10.23;1.60;;;;;;;9.76;86.38;101863.94;5056478;27;99883;-27
2024/01/24 07:49:15;;;;;;;3.53;1.25;;;;;;;9.78;86.38;101853.06;5057098;27;96539;-27
2024/01/24 07:51:41;;;;;;;7.65;1.90;;;;;;;9.85;87.70;101884.34;5057424;27;96782;-27
2024/01/24 07:54:07;;;;;;;6.88;1.38;;;;;;;9.83;87.61;101866.41;5054912;27;100848;-27
2024/01/24 07:56:33;;;;;;;4.22;0.65;;;;;;;9.77;86.82;101860.31;5055915;27;97799;-32
2024/01/24 07:58:58;;;;;;;3.13;0.98;;;;;;;9.82;87.53;101894.38;5054935;27;96605;-27
2024/01/24 08:01:24;;;;;;;10.57;2.05;;;;;;;9.77;87.24;101895.47;5056775;27;96697;-27
2024/01/24 08:03:50;;;;;;;8.50;1.42;;;;;;;9.76;86.83;101885.59;5056392;27;98694;-27
2024/01/24 08:06:15;;;;;;;8.93;1.45;;;;;;;9.77;86.36;101889.16;5053224;27;100992;-27
2024/01/24 08:08:41;;;;;;;8.05;2.17;;;;;;;9.84;86.10;101885.25;5053972;27;97161;-27
2024/01/24 08:11:06;;;;;;;6.97;1.27;;;;;;;9.82;86.52;101913.34;5054194;27;97090;-27
2024/01/24 08:13:32;;;;;;;3.58;1.35;;;;;;;9.76;85.65;101922.59;5053703;27;98073;-27
2024/01/24 08:15:57;;;;;;;5.68;1.52;;;;;;;9.83;86.51;101923.22;5054271;27;97936;-31
2024/01/24 08:18:24;;;;;;;9.13;1.40;;;;;;;9.85;85.80;101930.34;5054220;27;97011;-27
2024/01/24 08:20:52;;;;;;;8.30;1.80;;;;;;;9.84;85.88;101927.69;5053376;27;97165;-27
2024/01/24 08:23:18;;;;;;;2.85;0.88;;;;;;;9.79;85.93;101927.88;5054170;27;100786;-27
2024/01/24 08:25:43;;;;;;;13.75;1.83;;;;;;;9.81;86.44;101922.41;5054628;27;101318;-27
2024/01/24 08:28:10;;;;;;;3.83;1.00;;;;;;;9.82;86.48;101930.47;5055217;27;96637;-29
2024/01/24 08:30:36;;;;;;;3.50;0.65;;;;;;;9.85;85.96;101937.59;5056285;27;96781;-27
2024/01/24 08:33:01;;;;;;;7.57;1.40;;;;;;;9.85;85.64;101948.41;5056085;27;97367;-27
2024/01/24 08:35:27;;;;;;;4.43;0.55;;;;;;;9.83;86.33;101953.00;5055786;27;99145;-27
2024/01/24 08:37:52;;;;;;;8.70;0.98;;;;;;;9.84;86.45;101960.16;5056106;27;96513;-27
2024/01/24 08:40:19;;;;;;;5.65;1.70;;;;;;;9.83;85.98;101964.69;5056393;27;96823;-27
2024/01/24 08:42:44;;;;;;;4.38;0.98;;;;;;;9.78;86.66;101935.13;5055375;27;99664;-27
2024/01/24 08:45:10;;;;;;;4.07;1.13;;;;;;;9.77;86.57;101956.81;5055718;27;99299;-27
2024/01/24 08:47:36;;;;;;;7.63;1.23;;;;;;;9.76;86.77;101963.19;5055350;27;96631;-27
2024/01/24 08:50:04;;;;;;;13.18;0.98;;;;;;;9.83;86.72;101971.94;5056047;27;96748;-27
2024/01/24 08:52:30;;;;;;;9.57;1.65;;;;;;;9.75;87.22;101965.00;5055771;27;97931;-28
2024/01/24 08:54:56;;;;;;;6.40;2.10;;;;;;;9.80;86.57;102008.13;5053369;27;100795;-26
2024/01/24 08:57:21;;;;;;;4.47;1.13;;;;;;;9.76;86.75;102012.75;5055495;27;96798;-27
2024/01/24 08:59:46;;;;;;;15.50;1.60;;;;;;;9.73;85.89;101991.25;5055722;27;96675;-27
2024/01/24 09:02:12;;;;;;;6.80;0.93;;;;;;;9.75;86.32;101975.84;5055697;27;97908;-27
2024/01/24 09:04:37;;;;;;;6.78;0.93;;;;;;;9.79;87.58;102014.47;5056122;27;97718;-27
2024/01/24 09:07:03;;;;;;;3.03;0.80;;;;;;;9.78;86.57;102002.75;5055734;27;96579;-27
2024/01/24 09:09:32;;;;;;;8.57;1.67;;;;;;;9.76;87.23;102011.88;5054286;27;96648;-27
2024/01/24 09:11:58;;;;;;;6.03;1.80;;;;;;;9.81;87.00;102031.53;5036928;27;101315;-26
2024/01/24 09:14:24;;;;;;;8.48;1.33;;;;;;;9.83;87.04;102047.72;5054246;27;100648;-27
2024/01/24 09:16:50;;;;;;;5.28;1.27;;;;;;;9.86;87.05;102066.53;5054240;27;96633;-27
2024/01/24 09:19:15;;;;;;;5.45;1.63;;;;;;;9.87;88.00;102081.84;5055806;27;96767;-27
2024/01/24 09:21:40;;;;;;;8.27;1.92;;;;;;;9.80;88.06;102062.25;5055191;27;99255;-26
2024/01/24 09:24:06;;;;;;;6.47;1.02;;;;;;;9.82;87.69;102071.19;5055151;27;99027;-27
2024/01/24 09:26:31;;;;;;;3.78;1.35;;;;;;;9.77;87.48;102074.06;5055627;27;96482;-27
2024/01/24 09:28:57;;;;;;;12.98;1.25;;;;;;;9.81;87.48;102069.41;5056175;27;96672;-27
2024/01/24 09:31:22;;;;;;;9.10;1.52;;;;;;;9.81;87.27;102079.34;5054984;27;98785;-28
2024/01/24 09:33:47;;;;;;;7.15;1.02;;;;;;;9.85;87.79;102065.66;5055150;27;97801;-27
2024/01/24 09:36:13;;;;;;;10.40;2.30;;;;;;;9.88;88.11;102067.34;5055198;27;96475;-27
2024/01/24 09:38:42;;;;;;;6.22;1.20;;;;;;;9.89;87.54;102059.19;5055035;27;96786;-27
2024/01/24 09:41:16;;;;;;;4.47;1.30;;;;;;;9.93;87.42;102071.63;5055004;27;98778;-27
2024/01/24 09:43:43;;;;;;;5.72;1.25;;;;;;;9.93;87.86;102073.47;5053716;27;100850;-26
2024/01/24 09:46:13;;;;;;;6.18;1.52;;;;;;;9.89;87.71;102064.59;5053774;27;96693;-27
2024/01/24 09:48:41;;;;;;;7.35;1.55;;;;;;;9.93;87.68;102073.47;5053722;27;96798;-27
2024/01/24 09:51:08;;;;;;;4.40;1.85;;;;;;;10.00;87.83;102093.94;5053513;27;100786;-28
2024/01/24 09:53:34;;;;;;;8.05;1.23;;;;;;;10.10;87.51;102097.16;5053528;27;100661;-27
2024/01/24 09:56:02;;;;;;;11.73;1.45;;;;;;;10.21;87.15;102105.75;5053292;27;96627;-27
2024/01/24 09:58:27;;;;;;;9.65;1.38;;;;;;;10.26;86.76;102101.03;5053393;27;96905;-27
2024/01/24 10:00:53;;;;;;;11.93;1.58;;;;;;;10.29;86.80;102117.16;5052789;27;101313;-27
2024/01/24 10:03:19;;;;;;;2.17;0.77;;;;;;;10.43;86.44;102132.88;5053996;27;97911;-32
2024/01/24 10:05:48;;;;;;;4.82;0.90;;;;;;;10.50;85.71;102145.22;5052086;27;96885;-27
2024/01/24 10:08:15;;;;;;;2.97;0.80;;;;;;;10.52;85.58;102147.88;5055589;27;96785;-27
2024/01/24 10:10:42;;;;;;;9.65;2.17;;;;;;;10.47;85.52;102139.94;5058141;27;99590;-27
2024/01/24 10:13:07;;;;;;;9.80;1.92;;;;;;;10.48;85.34;102149.81;5056690;27;101426;-28
2024/01/24 10:15:35;;;;;;;5.75;1.65;;;;;;;10.56;84.75;102179.34;5058694;27;96506;-29
2024/01/24 10:18:01;;;;;;;10.52;1.38;;;;;;;10.60;85.03;102162.88;5057321;27;96862;-27
2024/01/24 10:20:26;;;;;;;7.40;1.48;;;;;;;10.59;84.50;102163.81;5057979;27;97476;-27
2024/01/24 10:22:53;;;;;;;12.43;1.50;;;;;;;10.55;84.01;102183.84;5056718;27;97669;-28
2024/01/24 10:25:19;;;;;;;6.07;1.27;;;;;;;10.55;83.62;102188.38;5053829;27;97208;-30
2024/01/24 10:27:44;;;;;;;1.95;0.80;;;;;;;10.53;83.54;102188.44;5055998;27;96993;-27
2024/01/24 10:30:11;;;;;;;4.75;1.08;;;;;;;10.56;84.03;102182.91;5054942;27;97712;-27
2024/01/24 10:32:37;;;;;;;14.52;1.83;;;;;;;10.55;84.08;102172.13;5056574;27;100559;-27
2024/01/24 10:35:06;;;;;;;12.32;2.90;;;;;;;10.52;84.42;102189.41;5055924;27;96789;-28
2024/01/24 10:37:32;;;;;;;11.13;1.88;;;;;;;10.50;83.85;102183.16;5056174;27;96854;-26
2024/01/24 10:40:06;;;;;;;9.52;1.67;;;;;;;10.53;84.06;102188.44;5055415;27;101516;-27
2024/01/24 10:42:36;;;;;;;6.28;1.48;;;;;;;10.51;83.11;102198.47;5057019;27;98669;-27
2024/01/24 10:45:05;;;;;;;20.55;2.33;;;;;;;10.55;83.50;102191.09;5056488;27;96813;-27
2024/01/24 10:47:31;;;;;;;5.57;2.28;;;;;;;10.57;82.56;102200.06;5054813;27;96817;-27
2024/01/24 10:49:57;;;;;;;13.45;2.83;;;;;;;10.62;82.98;102209.75;5056382;27;97934;-30
2024/01/24 10:52:25;;;;;;;13.95;2.20;;;;;;;10.63;82.26;102203.41;5056680;27;99228;-26
2024/01/24 10:54:53;;;;;;;4.05;1.45;;;;;;;10.73;82.99;102198.50;5055900;27;96923;-27
2024/01/24 10:57:19;;;;;;;6.28;1.40;;;;;;;10.78;82.88;102229.00;5054346;27;97017;-28
2024/01/24 10:59:44;;;;;;;3.40;1.13;;;;;;;10.74;81.90;102212.91;5057073;27;99325;-27
2024/01/24 11:02:10;;;;;;;7.13;1.63;;;;;;;10.73;81.58;102224.72;5056535;27;96918;-26
2024/01/24 11:04:37;;;;;;;4.40;0.95;;;;;;;10.77;80.90;102237.19;5057494;27;96516;-28
2024/01/24 11:07:11;;;;;;;3.35;1.00;;;;;;;10.78;80.36;102233.53;5055641;27;96868;-28
2024/01/24 11:09:53;;;;;;;5.45;1.67;;;;;;;10.79;80.65;102232.59;5055798;27;101162;-28
2024/01/24 11:12:19;;;;;;;6.57;1.40;;;;;;;10.83;80.31;102226.09;5055126;27;101381;-27
2024/01/24 11:14:46;;;;;;;12.23;1.75;;;;;;;10.83;80.54;102243.25;5055550;27;96756;-27